createdAt,value
2022-10-27T00:01:41.791Z,99589.84
2022-10-27T00:04:08.960Z,99586.19
2022-10-27T00:06:39.751Z,99588.75
2022-10-27T00:09:07.256Z,99591.47
2022-10-27T00:11:34.682Z,99576.38
2022-10-27T00:14:01.986Z,99572.19
2022-10-27T00:16:29.096Z,99574.03
2022-10-27T00:18:56.272Z,99573.16
2022-10-27T00:21:24.277Z,99568.41
2022-10-27T00:23:51.991Z,99578.34
2022-10-27T00:26:22.352Z,99577.47
2022-10-27T00:28:49.877Z,99578.56
2022-10-27T00:31:22.293Z,99577.59
2022-10-27T00:33:51.237Z,99583.97
2022-10-27T00:36:24.986Z,99585.13
2022-10-27T00:38:58.770Z,99592.19
2022-10-27T00:41:34.519Z,99605.19
2022-10-27T00:44:39.728Z,99604.69
2022-10-27T00:47:09.719Z,99597.09
2022-10-27T00:49:49.138Z,99603.78
2022-10-27T00:52:38.985Z,99602.81
2022-10-27T00:55:33.932Z,99608.97
2022-10-27T00:58:08.325Z,99613.53
2022-10-27T01:00:39.408Z,99614.53
2022-10-27T01:03:10.369Z,99609.19
2022-10-27T01:05:37.601Z,99604.44
2022-10-27T01:08:06.452Z,99609.72
2022-10-27T01:10:34.093Z,99601.16
2022-10-27T01:13:02.485Z,99607.97
2022-10-27T01:16:15.777Z,99601.22
2022-10-27T01:19:27.933Z,99602.81
2022-10-27T01:22:07.311Z,99598.84
2022-10-27T01:25:14.739Z,99605.56
2022-10-27T01:28:11.252Z,99600.03
2022-10-27T01:31:24.364Z,99598.53
2022-10-27T01:34:29.724Z,99590.66
2022-10-27T01:37:28.121Z,99595.28
2022-10-27T01:40:09.096Z,99594.81
2022-10-27T01:42:59.661Z,99600.06
2022-10-27T01:45:35.558Z,99599.75
2022-10-27T01:48:06.706Z,99599.84
2022-10-27T01:50:56.887Z,99597.84
2022-10-27T01:53:33.024Z,99603.91
2022-10-27T01:56:25.072Z,99601.34
2022-10-27T01:59:10.629Z,99592.31
2022-10-27T02:02:03.898Z,99594.06
2022-10-27T02:05:36.776Z,99590.50
2022-10-27T02:08:57.338Z,99589.31
2022-10-27T02:11:34.988Z,99597.84
2022-10-27T02:14:03.370Z,99598.34
2022-10-27T02:16:34.878Z,99596.41
2022-10-27T02:19:28.532Z,99594.28
2022-10-27T02:22:01.376Z,99590.09
2022-10-27T02:24:30.036Z,99593.50
2022-10-27T02:27:40.096Z,99588.34
2022-10-27T02:30:08.352Z,99593.50
2022-10-27T02:32:36.318Z,99595.38
2022-10-27T02:35:06.055Z,99600.78
2022-10-27T02:37:42.237Z,99606.22
2022-10-27T02:40:10.625Z,99611.25
2022-10-27T02:42:38.035Z,99612.44
2022-10-27T02:45:06.350Z,99617.13
2022-10-27T02:47:33.451Z,99611.44
2022-10-27T02:50:00.621Z,99606.81
2022-10-27T02:52:27.792Z,99609.38
2022-10-27T02:54:54.908Z,99614.94
2022-10-27T02:57:22.093Z,99609.47
2022-10-27T02:59:52.671Z,99610.31
2022-10-27T03:02:23.281Z,99608.72
2022-10-27T03:04:51.355Z,99600.81
2022-10-27T03:07:18.766Z,99591.41
2022-10-27T03:09:45.973Z,99584.75
2022-10-27T03:12:14.122Z,99610.19
2022-10-27T03:14:41.563Z,99603.94
2022-10-27T03:17:08.657Z,99600.03
2022-10-27T03:19:35.757Z,99600.19
2022-10-27T03:22:03.199Z,99600.31
2022-10-27T03:24:30.654Z,99596.16
2022-10-27T03:26:58.125Z,99605.25
2022-10-27T03:29:27.040Z,99600.53
2022-10-27T03:31:54.556Z,99603.44
2022-10-27T03:34:21.691Z,99603.03
2022-10-27T03:36:55.225Z,99608.53
2022-10-27T03:39:22.609Z,99610.63
2022-10-27T03:41:49.945Z,99609.91
2022-10-27T03:44:17.201Z,99607.84
2022-10-27T03:46:44.319Z,99606.34
2022-10-27T03:49:11.498Z,99592.91
2022-10-27T03:51:38.896Z,99604.56
2022-10-27T03:54:06.223Z,99600.81
2022-10-27T03:56:33.489Z,99596.28
2022-10-27T03:59:00.661Z,99603.00
2022-10-27T04:01:29.998Z,99595.78
2022-10-27T04:03:57.165Z,99597.16
2022-10-27T04:06:24.343Z,99604.41
2022-10-27T04:08:51.604Z,99607.81
2022-10-27T04:11:19.491Z,99606.22
2022-10-27T04:13:47.626Z,99601.50
2022-10-27T04:16:15.384Z,99595.41
2022-10-27T04:18:42.560Z,99603.97
2022-10-27T04:21:10.029Z,99597.88
2022-10-27T04:23:37.338Z,99613.88
2022-10-27T04:26:04.637Z,99609.22
2022-10-27T04:28:32.018Z,99598.41
2022-10-27T04:30:59.385Z,99607.56
2022-10-27T04:33:29.045Z,99608.09
2022-10-27T04:35:58.387Z,99606.91
2022-10-27T04:38:25.820Z,99609.31
2022-10-27T04:40:53.196Z,99613.84
2022-10-27T04:43:20.760Z,99612.81
2022-10-27T04:45:48.069Z,99613.78
2022-10-27T04:48:15.252Z,99615.66
2022-10-27T04:50:42.452Z,99617.03
2022-10-27T04:53:09.899Z,99617.59
2022-10-27T04:55:39.045Z,99625.31
2022-10-27T04:58:09.314Z,99626.19
2022-10-27T05:00:37.501Z,99620.22
2022-10-27T05:03:05.149Z,99624.41
2022-10-27T05:05:32.294Z,99630.28
2022-10-27T05:08:02.388Z,99639.75
2022-10-27T05:10:32.389Z,99632.22
2022-10-27T05:13:00.130Z,99627.94
2022-10-27T05:15:27.556Z,99630.03
2022-10-27T05:17:54.856Z,99631.34
2022-10-27T05:20:22.574Z,99629.53
2022-10-27T05:22:50.276Z,99624.19
2022-10-27T05:25:18.096Z,99623.47
2022-10-27T05:27:45.693Z,99625.19
2022-10-27T05:30:14.853Z,99635.38
2022-10-27T05:32:45.097Z,99629.38
2022-10-27T05:35:14.697Z,99634.38
2022-10-27T05:37:47.160Z,99635.34
2022-10-27T05:40:15.663Z,99636.56
2022-10-27T05:42:55.918Z,99635.91
2022-10-27T05:45:24.759Z,99626.53
2022-10-27T05:48:07.553Z,99627.44
2022-10-27T05:50:35.706Z,99628.34
2022-10-27T05:53:03.261Z,99627.28
2022-10-27T05:55:30.857Z,99616.50
2022-10-27T05:58:05.394Z,99620.91
2022-10-27T06:00:38.007Z,99627.56
2022-10-27T06:03:23.397Z,99622.13
2022-10-27T06:05:51.834Z,99630.22
2022-10-27T06:08:20.111Z,99622.72
2022-10-27T06:10:47.886Z,99618.22
2022-10-27T06:13:15.030Z,99615.06
2022-10-27T06:15:45.718Z,99614.38
2022-10-27T06:18:13.416Z,99617.06
2022-10-27T06:20:43.681Z,99613.19
2022-10-27T06:23:11.242Z,99608.63
2022-10-27T06:25:39.125Z,99614.31
2022-10-27T06:28:12.369Z,99619.13
2022-10-27T06:30:40.164Z,99624.88
2022-10-27T06:33:09.644Z,99624.06
2022-10-27T06:35:37.005Z,99637.38
2022-10-27T06:38:04.459Z,99638.13
2022-10-27T06:40:32.182Z,99635.38
2022-10-27T06:43:06.890Z,99631.97
2022-10-27T06:45:35.084Z,99642.47
2022-10-27T06:48:02.977Z,99649.72
2022-10-27T06:50:30.956Z,99644.13
2022-10-27T06:52:59.101Z,99650.53
2022-10-27T06:55:27.368Z,99650.19
2022-10-27T06:57:55.141Z,99656.66
2022-10-27T07:00:23.009Z,99659.22
2022-10-27T07:02:50.755Z,99658.84
2022-10-27T07:05:18.353Z,99653.84
2022-10-27T07:07:51.818Z,99659.75
2022-10-27T07:10:20.911Z,99658.78
2022-10-27T07:12:57.516Z,99659.56
2022-10-27T07:15:28.974Z,99666.16
2022-10-27T07:18:05.968Z,99659.00
2022-10-27T07:20:58.016Z,99655.06
2022-10-27T07:23:25.122Z,99656.63
2022-10-27T07:25:52.179Z,99648.56
2022-10-27T07:28:19.424Z,99655.41
2022-10-27T07:30:48.222Z,99653.94
2022-10-27T07:33:15.821Z,99656.94
2022-10-27T07:35:42.932Z,99658.84
2022-10-27T07:38:10.063Z,99663.06
2022-10-27T07:40:37.577Z,99659.66
2022-10-27T07:43:08.072Z,99656.81
2022-10-27T07:45:39.340Z,99657.22
2022-10-27T07:48:13.088Z,99657.81
2022-10-27T07:50:40.582Z,99664.94
2022-10-27T07:53:08.320Z,99664.00
2022-10-27T07:55:37.348Z,99667.81
2022-10-27T07:58:13.249Z,99668.88
2022-10-27T08:00:45.144Z,99661.91
2022-10-27T08:03:25.492Z,99664.00
2022-10-27T08:05:53.168Z,99669.13
2022-10-27T08:08:20.713Z,99667.16
2022-10-27T08:10:50.329Z,99662.47
2022-10-27T08:13:18.252Z,99666.59
2022-10-27T08:15:45.654Z,99677.59
2022-10-27T08:18:13.348Z,99675.50
2022-10-27T08:20:46.935Z,99666.81
2022-10-27T08:23:21.819Z,99674.97
2022-10-27T08:25:49.187Z,99676.09
2022-10-27T08:28:16.935Z,99680.47
2022-10-27T08:30:51.923Z,99687.38
2022-10-27T08:33:23.191Z,99692.06
2022-10-27T08:35:50.966Z,99681.69
2022-10-27T08:38:20.059Z,99678.88
2022-10-27T08:41:25.743Z,99687.88
2022-10-27T08:44:16.146Z,99669.78
2022-10-27T08:47:00.378Z,99679.34
2022-10-27T08:49:44.826Z,99678.13
2022-10-27T08:53:05.216Z,99674.50
2022-10-27T08:55:49.034Z,99670.69
2022-10-27T09:01:57.883Z,99667.50
2022-10-27T09:04:53.415Z,99676.28
2022-10-27T09:07:55.039Z,99669.41
2022-10-27T09:11:00.314Z,99657.75
2022-10-27T09:14:17.787Z,99664.13
2022-10-27T09:17:12.729Z,99662.41
2022-10-27T09:20:01.467Z,99662.28
2022-10-27T09:22:34.489Z,99655.81
2022-10-27T09:25:13.944Z,99647.41
2022-10-27T09:27:46.366Z,99651.69
2022-10-27T09:30:15.592Z,99642.66
2022-10-27T09:32:50.192Z,99646.97
2022-10-27T09:35:25.775Z,99651.75
2022-10-27T09:37:56.476Z,99641.84
2022-10-27T09:40:26.093Z,99653.97
2022-10-27T09:42:57.620Z,99654.47
2022-10-27T09:45:28.421Z,99653.00
2022-10-27T09:48:06.314Z,99646.56
2022-10-27T09:51:15.244Z,99637.19
2022-10-27T09:53:48.510Z,99643.94
2022-10-27T09:56:33.754Z,99646.34
2022-10-27T09:59:05.322Z,99639.41
2022-10-27T10:01:57.398Z,99633.34
2022-10-27T10:04:34.444Z,99639.03
2022-10-27T10:07:06.265Z,99629.34
2022-10-27T10:09:42.158Z,99625.09
2022-10-27T10:12:23.746Z,99626.03
2022-10-27T10:15:11.285Z,99627.34
2022-10-27T10:17:52.091Z,99621.88
2022-10-27T10:20:39.563Z,99624.41
2022-10-27T10:23:27.738Z,99618.00
2022-10-27T10:25:59.096Z,99625.06
2022-10-27T10:28:40.929Z,99621.19
2022-10-27T10:31:15.739Z,99617.69
2022-10-27T10:33:47.448Z,99616.00
2022-10-27T10:36:35.189Z,99604.69
2022-10-27T10:39:24.954Z,99604.06
2022-10-27T10:42:10.272Z,99599.59
2022-10-27T10:44:38.430Z,99607.75
2022-10-27T10:47:21.672Z,99606.03
2022-10-27T10:49:59.667Z,99590.94
2022-10-27T10:52:41.004Z,99593.81
2022-10-27T10:55:36.515Z,99590.59
2022-10-27T10:58:04.155Z,99590.78
2022-10-27T11:00:31.501Z,99592.81
2022-10-27T11:03:01.779Z,99589.53
2022-10-27T11:05:36.499Z,99589.09
2022-10-27T11:08:06.571Z,99587.81
2022-10-27T11:10:43.033Z,99588.31
2022-10-27T11:13:21.995Z,99574.06
2022-10-27T11:15:59.036Z,99581.34
2022-10-27T11:18:44.318Z,99573.94
2022-10-27T11:21:43.082Z,99570.88
2022-10-27T11:25:06.680Z,99567.22
2022-10-27T11:27:57.320Z,99560.34
2022-10-27T11:30:28.559Z,99551.09
2022-10-27T11:33:31.365Z,99553.72
2022-10-27T11:36:32.578Z,99548.06
2022-10-27T11:39:13.209Z,99537.31
2022-10-27T11:41:54.435Z,99539.31
2022-10-27T11:45:02.988Z,99528.66
2022-10-27T11:47:44.441Z,99532.63
2022-10-27T11:50:24.772Z,99527.13
2022-10-27T11:52:57.129Z,99525.09
2022-10-27T11:55:41.586Z,99527.34
2022-10-27T11:58:51.788Z,99521.44
2022-10-27T12:02:11.378Z,99520.81
2022-10-27T12:05:05.129Z,99515.63
2022-10-27T12:08:14.385Z,99520.50
2022-10-27T12:11:08.182Z,99513.72
2022-10-27T12:14:06.658Z,99514.22
2022-10-27T12:16:47.766Z,99515.25
2022-10-27T12:19:29.636Z,99520.06
2022-10-27T12:22:50.930Z,99503.88
2022-10-27T12:25:43.526Z,99503.31
2022-10-27T12:28:16.434Z,99497.00
2022-10-27T12:30:49.108Z,99496.25
2022-10-27T12:33:49.958Z,99492.63
2022-10-27T12:36:41.406Z,99497.56
2022-10-27T12:39:31.877Z,99484.72
2022-10-27T12:42:42.102Z,99483.44
2022-10-27T12:45:40.775Z,99480.13
2022-10-27T12:48:37.383Z,99473.34
2022-10-27T12:51:44.089Z,99467.50
2022-10-27T12:54:52.680Z,99468.59
2022-10-27T12:57:52.163Z,99471.94
2022-10-27T13:00:22.460Z,99463.91
2022-10-27T13:03:23.571Z,99466.97
2022-10-27T13:06:19.371Z,99469.91
2022-10-27T13:09:16.784Z,99469.00
2022-10-27T13:12:24.309Z,99463.31
2022-10-27T13:15:51.369Z,99459.00
2022-10-27T13:18:52.141Z,99460.78
2022-10-27T13:21:43.628Z,99451.22
2022-10-27T13:24:24.913Z,99449.25
2022-10-27T13:27:04.055Z,99453.34
2022-10-27T13:30:14.326Z,99451.63
2022-10-27T13:32:53.637Z,99448.69
2022-10-27T13:35:33.372Z,99436.78
2022-10-27T13:38:24.412Z,99440.84
2022-10-27T13:40:54.870Z,99431.84
2022-10-27T13:43:22.070Z,99438.06
2022-10-27T13:45:55.863Z,99435.78
2022-10-27T13:48:22.864Z,99438.03
2022-10-27T13:50:51.659Z,99428.72
2022-10-27T13:53:18.936Z,99423.69
2022-10-27T13:55:58.161Z,99431.47
2022-10-27T13:59:21.456Z,99426.41
2022-10-27T14:02:02.718Z,99431.66
2022-10-27T14:05:09.100Z,99428.72
2022-10-27T14:07:37.067Z,99439.22
2022-10-27T14:10:05.009Z,99437.41
2022-10-27T14:12:35.637Z,99439.44
2022-10-27T14:15:11.841Z,99434.44
2022-10-27T14:17:44.301Z,99432.91
2022-10-27T14:20:35.846Z,99430.03
2022-10-27T14:23:17.005Z,99436.25
2022-10-27T14:25:44.138Z,99432.34
2022-10-27T14:28:22.901Z,99437.97
2022-10-27T14:31:20.872Z,99430.59
2022-10-27T14:33:48.646Z,99438.63
2022-10-27T14:36:33.214Z,99432.44
2022-10-27T14:39:18.273Z,99438.47
2022-10-27T14:41:48.938Z,99433.13
2022-10-27T14:44:32.942Z,99428.34
2022-10-27T14:47:10.708Z,99427.44
2022-10-27T14:49:51.191Z,99418.91
2022-10-27T14:52:49.739Z,99413.84
2022-10-27T14:55:36.634Z,99416.31
2022-10-27T14:58:06.859Z,99414.59
2022-10-27T15:00:38.036Z,99426.09
2022-10-27T15:03:11.663Z,99416.66
2022-10-27T15:05:46.447Z,99420.31
2022-10-27T15:08:25.841Z,99415.56
2022-10-27T15:11:02.811Z,99417.56
2022-10-27T15:13:29.991Z,99417.22
2022-10-27T15:16:04.805Z,99413.31
2022-10-27T15:18:42.355Z,99407.19
2022-10-27T15:21:20.170Z,99405.84
2022-10-27T15:23:52.959Z,99408.25
2022-10-27T15:26:27.073Z,99400.88
2022-10-27T15:28:56.594Z,99398.03
2022-10-27T15:31:25.147Z,99403.56
2022-10-27T15:34:07.809Z,99407.38
2022-10-27T15:36:35.064Z,99407.19
2022-10-27T15:39:11.362Z,99404.91
2022-10-27T15:41:51.798Z,99406.19
2022-10-27T15:44:27.356Z,99412.75
2022-10-27T15:46:54.715Z,99416.22
2022-10-27T15:49:29.435Z,99416.06
2022-10-27T15:52:03.751Z,99424.28
2022-10-27T15:54:39.213Z,99414.00
2022-10-27T15:57:30.293Z,99417.34
2022-10-27T16:00:12.663Z,99413.44
2022-10-27T16:02:58.070Z,99422.63
2022-10-27T16:05:31.635Z,99421.22
2022-10-27T16:08:14.517Z,99432.94
2022-10-27T16:10:42.142Z,99431.06
2022-10-27T16:13:17.827Z,99430.97
2022-10-27T16:15:48.388Z,99426.50
2022-10-27T16:18:22.040Z,99431.88
2022-10-27T16:20:49.427Z,99440.19
2022-10-27T16:23:17.067Z,99438.50
2022-10-27T16:25:46.898Z,99440.53
2022-10-27T16:28:19.880Z,99437.19
2022-10-27T16:30:47.519Z,99438.31
2022-10-27T16:33:23.127Z,99427.69
2022-10-27T16:35:51.135Z,99429.56
2022-10-27T16:38:18.751Z,99437.66
2022-10-27T16:40:48.158Z,99442.25
2022-10-27T16:43:26.191Z,99441.69
2022-10-27T16:45:53.424Z,99438.00
2022-10-27T16:48:20.581Z,99443.56
2022-10-27T16:50:47.741Z,99439.00
2022-10-27T16:53:20.112Z,99431.22
2022-10-27T16:56:01.854Z,99436.72
2022-10-27T16:58:35.013Z,99439.09
2022-10-27T17:01:08.153Z,99446.84
2022-10-27T17:03:36.180Z,99454.69
2022-10-27T17:06:11.171Z,99452.69
2022-10-27T17:08:40.410Z,99450.94
2022-10-27T17:11:17.528Z,99460.81
2022-10-27T17:13:45.174Z,99466.41
2022-10-27T17:16:16.612Z,99466.16
2022-10-27T17:18:44.735Z,99465.34
2022-10-27T17:21:14.393Z,99472.00
2022-10-27T17:23:44.632Z,99466.09
2022-10-27T17:26:16.950Z,99474.31
2022-10-27T17:28:48.437Z,99478.69
2022-10-27T17:31:21.017Z,99483.06
2022-10-27T17:33:53.179Z,99475.75
2022-10-27T17:36:20.337Z,99485.19
2022-10-27T17:38:47.719Z,99495.19
2022-10-27T17:41:16.323Z,99484.75
2022-10-27T17:43:43.664Z,99487.41
2022-10-27T17:46:21.475Z,99503.84
2022-10-27T17:48:55.878Z,99497.22
2022-10-27T17:51:27.697Z,99502.19
2022-10-27T17:53:55.458Z,99491.28
2022-10-27T17:56:35.977Z,99501.03
2022-10-27T17:59:07.482Z,99494.06
2022-10-27T18:01:35.394Z,99500.19
2022-10-27T18:04:08.571Z,99506.34
2022-10-27T18:06:38.749Z,99507.88
2022-10-27T18:09:06.957Z,99519.94
2022-10-27T18:11:38.010Z,99515.22
2022-10-27T18:14:13.873Z,99517.56
2022-10-27T18:16:44.372Z,99521.22
2022-10-27T18:19:15.963Z,99530.47
2022-10-27T18:21:47.646Z,99529.63
2022-10-27T18:24:17.367Z,99536.56
2022-10-27T18:26:48.201Z,99535.03
2022-10-27T18:29:18.614Z,99528.38
2022-10-27T18:32:20.046Z,99534.41
2022-10-27T18:34:47.244Z,99531.34
2022-10-27T18:37:14.578Z,99533.75
2022-10-27T18:39:41.861Z,99545.09
2022-10-27T18:42:09.040Z,99543.13
2022-10-27T18:44:36.355Z,99537.84
2022-10-27T18:47:03.694Z,99543.09
2022-10-27T18:49:47.523Z,99538.47
2022-10-27T18:52:15.549Z,99537.00
2022-10-27T18:54:42.794Z,99542.00
2022-10-27T18:57:09.996Z,99542.69
2022-10-27T18:59:37.121Z,99544.03
2022-10-27T19:02:04.917Z,99538.63
2022-10-27T19:04:32.531Z,99542.09
2022-10-27T19:06:59.840Z,99541.41
2022-10-27T19:09:27.046Z,99537.44
2022-10-27T19:11:54.493Z,99537.00
2022-10-27T19:14:21.664Z,99530.44
2022-10-27T19:16:53.068Z,99535.06
2022-10-27T19:19:24.500Z,99542.19
2022-10-27T19:21:54.492Z,99535.69
2022-10-27T19:24:22.410Z,99538.13
2022-10-27T19:26:49.728Z,99538.03
2022-10-27T19:29:17.131Z,99537.53
2022-10-27T19:31:44.738Z,99532.25
2022-10-27T19:34:13.889Z,99538.34
2022-10-27T19:36:41.542Z,99538.13
2022-10-27T19:39:11.693Z,99531.63
2022-10-27T19:41:39.992Z,99526.47
2022-10-27T19:44:07.534Z,99528.09
2022-10-27T19:46:34.800Z,99538.72
2022-10-27T19:49:06.651Z,99533.56
2022-10-27T19:51:38.006Z,99534.63
2022-10-27T19:54:14.082Z,99536.38
2022-10-27T19:56:47.500Z,99535.81
2022-10-27T19:59:21.914Z,99538.91
2022-10-27T20:01:58.784Z,99534.81
2022-10-27T20:04:26.392Z,99543.28
2022-10-27T20:06:53.529Z,99535.22
2022-10-27T20:09:23.004Z,99542.00
2022-10-27T20:12:15.415Z,99533.47
2022-10-27T20:14:42.682Z,99528.22
2022-10-27T20:17:09.827Z,99517.13
2022-10-27T20:19:38.232Z,99521.72
2022-10-27T20:22:06.394Z,99527.16
2022-10-27T20:24:34.153Z,99528.22
2022-10-27T20:27:05.986Z,99539.97
2022-10-27T20:29:35.613Z,99531.50
2022-10-27T20:32:03.546Z,99534.44
2022-10-27T20:34:30.668Z,99537.53
2022-10-27T20:36:58.594Z,99543.19
2022-10-27T20:39:25.929Z,99544.63
2022-10-27T20:41:53.172Z,99540.06
2022-10-27T20:44:20.334Z,99543.25
2022-10-27T20:46:48.903Z,99542.00
2022-10-27T20:49:16.803Z,99540.59
2022-10-27T20:51:46.494Z,99549.75
2022-10-27T20:54:13.871Z,99545.25
2022-10-27T20:56:41.574Z,99551.00
2022-10-27T20:59:08.948Z,99547.41
2022-10-27T21:01:45.209Z,99546.44
2022-10-27T21:04:22.099Z,99546.13
2022-10-27T21:06:53.047Z,99540.69
2022-10-27T21:09:21.226Z,99541.94
2022-10-27T21:11:54.097Z,99542.72
2022-10-27T21:14:22.186Z,99546.22
2022-10-27T21:16:52.013Z,99544.56
2022-10-27T21:19:19.867Z,99537.94
2022-10-27T21:21:47.164Z,99534.78
2022-10-27T21:24:17.125Z,99533.75
2022-10-27T21:26:45.700Z,99540.59
2022-10-27T21:29:13.459Z,99540.38
2022-10-27T21:31:42.218Z,99537.06
2022-10-27T21:34:10.507Z,99537.16
2022-10-27T21:36:38.122Z,99538.81
2022-10-27T21:39:09.335Z,99542.50
2022-10-27T21:41:37.005Z,99532.50
2022-10-27T21:44:04.488Z,99531.81
2022-10-27T21:46:32.459Z,99537.59
2022-10-27T21:49:01.896Z,99540.19
2022-10-27T21:51:30.363Z,99543.41
2022-10-27T21:54:02.629Z,99541.50
2022-10-27T21:56:32.876Z,99537.69
2022-10-27T21:59:00.307Z,99538.47
2022-10-27T22:01:28.690Z,99546.94
2022-10-27T22:03:57.064Z,99541.81
2022-10-27T22:06:35.724Z,99552.25
2022-10-27T22:09:03.556Z,99559.19
2022-10-27T22:11:35.576Z,99552.19
2022-10-27T22:14:03.184Z,99544.75
2022-10-27T22:16:31.096Z,99553.22
2022-10-27T22:19:04.146Z,99540.25
2022-10-27T22:21:40.234Z,99550.06
2022-10-27T22:24:07.938Z,99547.47
2022-10-27T22:26:35.080Z,99549.38
2022-10-27T22:29:06.868Z,99550.94
2022-10-27T22:31:35.207Z,99545.69
2022-10-27T22:34:03.438Z,99550.34
2022-10-27T22:36:31.067Z,99543.84
2022-10-27T22:39:01.567Z,99549.28
2022-10-27T22:41:32.345Z,99549.91
2022-10-27T22:43:59.408Z,99545.69
2022-10-27T22:46:30.539Z,99543.94
2022-10-27T22:48:58.638Z,99541.66
2022-10-27T22:51:27.877Z,99539.03
2022-10-27T22:53:56.792Z,99538.66
2022-10-27T22:56:30.205Z,99537.91
2022-10-27T22:59:01.795Z,99531.50
2022-10-27T23:01:35.406Z,99543.50
2022-10-27T23:04:07.094Z,99541.09
2022-10-27T23:06:37.113Z,99546.94
2022-10-27T23:09:11.429Z,99544.09
2022-10-27T23:11:38.472Z,99542.81
2022-10-27T23:14:06.725Z,99548.09
2022-10-27T23:16:34.383Z,99543.09
2022-10-27T23:19:02.105Z,99548.53
2022-10-27T23:21:30.613Z,99549.13
2022-10-27T23:24:02.275Z,99543.59
2022-10-27T23:26:36.575Z,99551.78
2022-10-27T23:29:10.764Z,99548.50
2022-10-27T23:31:38.540Z,99542.50
2022-10-27T23:34:07.640Z,99548.06
2022-10-27T23:36:36.276Z,99549.22
2022-10-27T23:39:04.630Z,99547.78
2022-10-27T23:41:32.149Z,99560.38
2022-10-27T23:44:00.150Z,99554.94
2022-10-27T23:46:28.697Z,99559.09
2022-10-27T23:48:57.667Z,99556.72
2022-10-27T23:51:24.868Z,99551.03
2022-10-27T23:53:52.288Z,99558.91
2022-10-27T23:56:19.427Z,99556.38
2022-10-27T23:58:47.057Z,99554.31
